Time;durP1;ratioP1;P1;durP2;ratioP2;P2;SDS_P1;SDS_P2;PMS_P1;PMS_P2;Temp;Humidity;BMP_temperature;BMP_pressure;BME280_temperature;BME280_humidity;BME280_pressure;Samples;Min_cycle;Max_cycle;Signal;HPM_P1;HPM_P2
2023/10/18 00:01:06;;;;;;;11.93;7.53;;;7.70;99.90;;;;;;5000810;28;20295;-62
2023/10/18 00:03:33;;;;;;;8.67;7.10;;;7.70;99.90;;;;;;5002209;28;20775;-63
2023/10/18 00:06:11;;;;;;;9.00;7.00;;;7.60;99.90;;;;;;5004846;28;20231;-63
2023/10/18 00:08:38;;;;;;;10.40;7.47;;;7.60;99.90;;;;;;5002639;28;20559;-63
2023/10/18 00:11:05;;;;;;;8.87;7.07;;;7.60;99.90;;;;;;5001166;28;20208;-61
2023/10/18 00:13:33;;;;;;;9.93;7.60;;;7.60;99.90;;;;;;5002015;28;20744;-63
2023/10/18 00:16:01;;;;;;;9.37;7.87;;;7.70;99.90;;;;;;5004815;28;20211;-63
2023/10/18 00:18:27;;;;;;;12.87;7.53;;;7.60;99.90;;;;;;5004146;28;20586;-63
2023/10/18 00:20:59;;;;;;;12.40;8.13;;;7.50;99.90;;;;;;5001093;28;20199;-62
2023/10/18 00:23:27;;;;;;;9.47;7.83;;;7.50;99.90;;;;;;5000744;28;20262;-63
2023/10/18 00:25:54;;;;;;;11.93;8.67;;;7.50;99.90;;;;;;5004699;28;20588;-61
2023/10/18 00:28:20;;;;;;;12.10;8.40;;;7.50;99.90;;;;;;5004073;28;20219;-61
2023/10/18 00:30:50;;;;;;;12.07;8.73;;;7.50;99.90;;;;;;5000996;28;20200;-62
2023/10/18 00:33:18;;;;;;;10.63;7.67;;;7.50;99.90;;;;;;5000843;28;20223;-63
2023/10/18 00:35:44;;;;;;;11.17;8.70;;;7.60;99.90;;;;;;5003107;28;20714;-63
2023/10/18 00:38:16;;;;;;;12.43;8.73;;;7.60;99.90;;;;;;5004086;28;20199;-61
2023/10/18 00:40:45;;;;;;;10.50;8.27;;;7.50;99.90;;;;;;5001603;28;20735;-62
2023/10/18 00:43:19;;;;;;;10.90;7.73;;;7.60;99.90;;;;;;5000680;28;20229;-60
2023/10/18 00:45:50;;;;;;;10.07;8.00;;;7.60;99.90;;;;;;5003345;28;20223;-61
2023/10/18 00:48:23;;;;;;;9.40;8.37;;;7.60;99.90;;;;;;5003970;28;20233;-62
2023/10/18 00:50:52;;;;;;;10.03;8.50;;;7.60;99.90;;;;;;5000696;28;20203;-61
2023/10/18 00:53:22;;;;;;;9.40;8.23;;;7.60;99.90;;;;;;5000507;28;20227;-63
2023/10/18 00:55:52;;;;;;;12.00;8.90;;;7.60;99.90;;;;;;5003361;28;20218;-62
2023/10/18 00:58:20;;;;;;;9.63;8.00;;;7.50;99.90;;;;;;5003926;28;20213;-62
2023/10/18 01:00:48;;;;;;;11.27;8.53;;;7.30;99.90;;;;;;5000995;28;20223;-61
2023/10/18 01:03:28;;;;;;;9.30;7.83;;;7.30;99.90;;;;;;5000381;28;20278;-63
2023/10/18 01:05:59;;;;;;;10.33;8.30;;;7.30;99.90;;;;;;4992782;28;20295;-62
2023/10/18 01:08:29;;;;;;;12.03;9.03;;;7.30;99.90;;;;;;5000379;28;20227;-61
2023/10/18 01:11:01;;;;;;;11.20;8.00;;;7.30;99.90;;;;;;4992855;28;20204;-62
2023/10/18 01:13:28;;;;;;;10.90;8.63;;;7.20;99.90;;;;;;5000099;28;20314;-61
2023/10/18 01:15:56;;;;;;;10.03;8.33;;;7.10;99.90;;;;;;5003634;28;20203;-61
2023/10/18 01:18:24;;;;;;;9.23;8.23;;;7.10;99.90;;;;;;5003805;28;20691;-61
2023/10/18 01:20:52;;;;;;;11.27;8.70;;;7.10;99.90;;;;;;5000182;28;20255;-61
2023/10/18 01:23:19;;;;;;;12.23;8.67;;;7.10;99.90;;;;;;5000331;28;20318;-62
2023/10/18 01:25:48;;;;;;;11.40;8.93;;;7.10;99.90;;;;;;5004157;28;20219;-62
2023/10/18 01:28:14;;;;;;;10.07;8.53;;;6.90;99.90;;;;;;5006783;28;20233;-60
2023/10/18 01:30:41;;;;;;;10.10;8.63;;;6.90;99.90;;;;;;5004875;28;20214;-61
2023/10/18 01:33:10;;;;;;;10.00;8.47;;;6.80;99.90;;;;;;5003928;28;20223;-62
2023/10/18 01:35:46;;;;;;;9.47;8.00;;;6.80;99.90;;;;;;5005084;28;20214;-61
2023/10/18 01:38:13;;;;;;;10.33;8.47;;;6.80;99.90;;;;;;5005965;28;20202;-61
2023/10/18 01:40:52;;;;;;;10.80;8.73;;;6.90;99.90;;;;;;5002677;28;20211;-61
2023/10/18 01:43:19;;;;;;;11.20;8.57;;;6.90;99.90;;;;;;4999890;28;20254;-62
2023/10/18 01:45:49;;;;;;;11.63;9.00;;;6.90;99.90;;;;;;5002211;28;20215;-63
2023/10/18 01:48:18;;;;;;;12.53;8.87;;;6.80;99.90;;;;;;5003541;28;20261;-63
2023/10/18 01:50:45;;;;;;;10.10;8.40;;;6.60;99.90;;;;;;5001341;28;20242;-60
2023/10/18 01:53:16;;;;;;;14.07;9.87;;;6.60;99.90;;;;;;4999631;28;20227;-62
2023/10/18 01:55:46;;;;;;;15.27;9.80;;;6.60;99.90;;;;;;5001649;28;20278;-62
2023/10/18 01:58:14;;;;;;;11.73;9.83;;;6.60;99.90;;;;;;5003194;28;20729;-63
2023/10/18 02:00:44;;;;;;;12.23;9.70;;;6.60;99.90;;;;;;5001680;28;20292;-61
2023/10/18 02:03:12;;;;;;;13.10;9.87;;;6.60;99.90;;;;;;4999759;28;20311;-62
2023/10/18 02:05:42;;;;;;;11.47;9.63;;;6.50;99.90;;;;;;5000535;28;20211;-62
2023/10/18 02:08:08;;;;;;;12.13;10.17;;;6.60;99.90;;;;;;5002957;28;20631;-61
2023/10/18 02:10:35;;;;;;;11.97;9.97;;;6.80;99.90;;;;;;5002261;28;20261;-62
2023/10/18 02:13:03;;;;;;;11.17;9.77;;;6.90;99.90;;;;;;4999453;28;20597;-63
2023/10/18 02:15:32;;;;;;;12.70;9.50;;;7.00;99.90;;;;;;4999623;28;20207;-61
2023/10/18 02:18:00;;;;;;;12.03;9.63;;;7.00;99.90;;;;;;4999505;28;20210;-62
2023/10/18 02:20:27;;;;;;;11.97;9.50;;;7.00;99.90;;;;;;4999179;28;20238;-63
2023/10/18 02:22:59;;;;;;;15.53;10.67;;;7.10;99.90;;;;;;5002058;28;20751;-63
2023/10/18 02:25:37;;;;;;;10.83;9.27;;;7.10;99.90;;;;;;5004742;28;20207;-63
2023/10/18 02:28:08;;;;;;;11.37;9.13;;;7.10;99.90;;;;;;4996592;28;20254;-61
2023/10/18 02:30:38;;;;;;;12.53;10.17;;;7.10;99.90;;;;;;5003313;28;20748;-61
2023/10/18 02:33:05;;;;;;;11.80;10.03;;;7.10;99.90;;;;;;5006663;28;20250;-61
2023/10/18 02:35:33;;;;;;;14.40;9.83;;;7.10;99.90;;;;;;5006250;28;20261;-61
2023/10/18 02:38:08;;;;;;;14.10;9.70;;;7.00;99.90;;;;;;5002950;28;20287;-63
2023/10/18 02:40:38;;;;;;;11.47;9.50;;;7.10;99.90;;;;;;5003300;28;20292;-61
2023/10/18 02:43:08;;;;;;;10.27;9.13;;;7.00;99.90;;;;;;5006417;28;20230;-62
2023/10/18 02:45:35;;;;;;;15.63;10.50;;;7.00;99.90;;;;;;5006181;28;20211;-61
2023/10/18 02:48:03;;;;;;;13.50;9.77;;;7.00;99.90;;;;;;5003137;28;20211;-61
2023/10/18 02:50:31;;;;;;;13.20;9.90;;;6.90;99.90;;;;;;5002603;28;20230;-61
2023/10/18 02:53:00;;;;;;;14.13;9.77;;;6.90;99.90;;;;;;4994568;28;20231;-61
2023/10/18 02:55:27;;;;;;;13.67;9.37;;;6.90;99.90;;;;;;5002803;28;20227;-63
2023/10/18 02:57:56;;;;;;;13.10;10.10;;;6.90;99.90;;;;;;5005547;28;20207;-61
2023/10/18 03:00:25;;;;;;;12.30;9.67;;;6.80;99.90;;;;;;5005938;28;20272;-61
2023/10/18 03:02:51;;;;;;;15.30;9.73;;;6.90;99.90;;;;;;5003761;28;20269;-62
2023/10/18 03:05:20;;;;;;;12.27;9.73;;;6.90;99.90;;;;;;5002633;28;20204;-60
2023/10/18 03:07:46;;;;;;;12.93;10.00;;;6.80;99.90;;;;;;5004548;28;20539;-60
2023/10/18 03:10:19;;;;;;;11.97;9.83;;;6.80;99.90;;;;;;5005915;28;20273;-62
2023/10/18 03:12:45;;;;;;;11.77;9.90;;;6.70;99.90;;;;;;5004595;28;20581;-62
2023/10/18 03:15:17;;;;;;;16.63;12.97;;;6.70;99.90;;;;;;5002900;28;20200;-60
2023/10/18 03:17:44;;;;;;;12.67;10.13;;;6.70;99.90;;;;;;5004220;28;20294;-62
2023/10/18 03:20:19;;;;;;;12.53;9.97;;;6.70;99.90;;;;;;5005435;28;20242;-62
2023/10/18 03:22:49;;;;;;;14.77;9.60;;;6.70;99.90;;;;;;5003613;28;20213;-63
2023/10/18 03:25:26;;;;;;;12.23;10.30;;;6.70;99.90;;;;;;5035240;22;20230;-58
2023/10/18 03:27:57;;;;;;;13.17;10.47;;;6.70;99.90;;;;;;5013440;28;20214;-58
2023/10/18 03:30:40;;;;;;;13.83;11.23;;;6.70;99.90;;;;;;5013282;28;20663;-58
2023/10/18 03:33:08;;;;;;;15.27;11.13;;;6.70;99.90;;;;;;5006383;28;20218;-57
2023/10/18 03:35:39;;;;;;;17.73;10.27;;;6.80;99.90;;;;;;5005061;28;20215;-56
2023/10/18 03:38:17;;;;;;;12.13;10.17;;;6.80;99.90;;;;;;5001803;28;20295;-57
2023/10/18 03:40:47;;;;;;;12.03;10.40;;;6.80;99.90;;;;;;5002818;28;20207;-58
2023/10/18 03:43:15;;;;;;;14.87;10.83;;;6.90;99.90;;;;;;5004987;28;20234;-58
2023/10/18 03:48:44;;;;;;;13.20;10.23;;;6.80;99.90;;;;;;5088029;28;20537;-57
2023/10/18 03:51:18;;;;;;;13.67;10.53;;;6.80;99.90;;;;;;5088371;28;20255;-56
2023/10/18 03:53:46;;;;;;;13.00;10.13;;;6.60;99.90;;;;;;5088051;28;20232;-58
2023/10/18 03:56:13;;;;;;;12.13;10.30;;;6.50;99.90;;;;;;5088133;28;20533;-59
2023/10/18 03:58:48;;;;;;;15.37;10.97;;;6.40;99.90;;;;;;5088142;28;20208;-57
2023/10/18 04:01:21;;;;;;;11.63;10.30;;;6.40;99.90;;;;;;5088454;28;20207;-56
2023/10/18 04:03:50;;;;;;;12.97;10.40;;;6.40;99.90;;;;;;5087979;28;20312;-57
2023/10/18 04:06:28;;;;;;;14.60;11.50;;;6.40;99.90;;;;;;5087842;28;20204;-57
2023/10/18 04:08:58;;;;;;;13.97;11.37;;;6.40;99.90;;;;;;5087794;28;20200;-59
2023/10/18 04:11:26;;;;;;;14.53;11.30;;;6.40;99.90;;;;;;5088009;28;20286;-58
2023/10/18 04:13:53;;;;;;;15.63;12.27;;;6.40;99.90;;;;;;5087520;28;20220;-58
2023/10/18 04:16:26;;;;;;;15.63;11.63;;;6.40;99.90;;;;;;5087706;28;20236;-57
2023/10/18 04:18:56;;;;;;;15.67;12.00;;;6.40;99.90;;;;;;5087330;28;20204;-57
2023/10/18 04:21:26;;;;;;;12.27;10.70;;;6.40;99.90;;;;;;5087623;28;20197;-57
2023/10/18 04:23:54;;;;;;;14.60;11.30;;;6.40;99.90;;;;;;5087584;28;20589;-57
2023/10/18 04:26:21;;;;;;;14.23;12.13;;;6.40;99.90;;;;;;5087438;28;20612;-58
2023/10/18 04:28:54;;;;;;;15.13;11.27;;;6.30;99.90;;;;;;5087377;28;20208;-57
2023/10/18 04:31:22;;;;;;;20.33;12.27;;;6.30;99.90;;;;;;5087522;28;20607;-58
2023/10/18 04:33:50;;;;;;;15.07;12.37;;;6.40;99.90;;;;;;5087275;28;20264;-58
2023/10/18 04:36:20;;;;;;;12.77;11.27;;;6.40;99.90;;;;;;5087643;28;20204;-59
2023/10/18 04:38:48;;;;;;;15.57;12.37;;;6.40;99.90;;;;;;5087096;28;20226;-59
2023/10/18 04:41:26;;;;;;;16.57;12.70;;;6.40;99.90;;;;;;5087406;28;20212;-57
2023/10/18 04:43:58;;;;;;;15.20;12.73;;;6.40;99.90;;;;;;5086988;28;20317;-58
2023/10/18 04:46:27;;;;;;;14.03;12.53;;;6.50;99.90;;;;;;5086864;28;20215;-57
2023/10/18 04:51:45;;;;;;;16.50;12.10;;;6.60;99.90;;;;;;5087089;28;20235;-57
2023/10/18 04:54:15;;;;;;;17.90;12.77;;;6.60;99.90;;;;;;5087102;28;20224;-58
2023/10/18 04:56:44;;;;;;;15.33;12.40;;;6.60;99.90;;;;;;5086780;28;20204;-58
2023/10/18 04:59:26;;;;;;;14.00;12.20;;;6.60;99.90;;;;;;5077925;28;20205;-58
2023/10/18 05:01:57;;;;;;;16.27;13.07;;;6.70;99.90;;;;;;5072964;28;20200;-58
2023/10/18 05:04:24;;;;;;;18.00;12.73;;;6.70;99.90;;;;;;5073242;28;20771;-57
2023/10/18 05:06:55;;;;;;;18.07;14.37;;;6.80;99.90;;;;;;5072960;28;20311;-59
2023/10/18 05:09:34;;;;;;;15.83;12.60;;;6.90;99.90;;;;;;5073120;28;20240;-59
2023/10/18 05:12:07;;;;;;;19.43;13.57;;;6.90;99.90;;;;;;5072772;28;20665;-58
2023/10/18 05:14:40;;;;;;;17.03;11.90;;;7.00;99.90;;;;;;5072933;28;20232;-57
2023/10/18 05:17:11;;;;;;;16.97;11.73;;;7.10;99.90;;;;;;5065482;28;20559;-57
2023/10/18 05:19:41;;;;;;;16.60;12.20;;;7.00;99.90;;;;;;5072963;28;20595;-58
2023/10/18 05:22:09;;;;;;;14.43;12.50;;;7.10;99.90;;;;;;5073406;28;20287;-58
2023/10/18 05:24:38;;;;;;;13.40;11.73;;;7.10;99.90;;;;;;5072630;28;20227;-58
2023/10/18 05:27:19;;;;;;;14.37;11.63;;;7.20;99.90;;;;;;5064993;28;20722;-59
2023/10/18 05:29:51;;;;;;;14.10;11.97;;;7.20;99.90;;;;;;5072630;28;20208;-57
2023/10/18 05:32:36;;;;;;;14.50;12.00;;;7.30;99.90;;;;;;5072999;28;20254;-57
2023/10/18 05:35:19;;;;;;;12.97;10.57;;;7.30;99.90;;;;;;5064706;28;20213;-57
2023/10/18 05:38:06;;;;;;;16.97;12.83;;;7.30;99.90;;;;;;5072521;28;20201;-56
2023/10/18 05:40:46;;;;;;;15.57;12.10;;;7.30;99.90;;;;;;5072927;28;20213;-57
2023/10/18 05:43:22;;;;;;;15.57;12.83;;;7.00;99.90;;;;;;5065667;28;20211;-56
2023/10/18 05:45:50;;;;;;;16.50;12.33;;;6.80;99.90;;;;;;5072390;28;20209;-56
2023/10/18 05:48:18;;;;;;;17.77;12.07;;;6.90;99.90;;;;;;5072454;28;20281;-56
2023/10/18 05:50:49;;;;;;;15.97;11.83;;;6.90;99.90;;;;;;5072484;28;20205;-55
2023/10/18 05:53:20;;;;;;;17.13;11.87;;;6.90;99.90;;;;;;5072669;28;20262;-56
2023/10/18 05:55:52;;;;;;;15.47;10.50;;;6.90;99.90;;;;;;5072621;28;20282;-55
2023/10/18 05:58:25;;;;;;;14.27;11.17;;;6.60;99.90;;;;;;5072721;28;20201;-56
2023/10/18 06:00:52;;;;;;;15.90;11.80;;;6.40;99.90;;;;;;5071868;28;20671;-56
2023/10/18 06:03:22;;;;;;;19.03;12.03;;;6.40;99.90;;;;;;5072523;28;20258;-56
2023/10/18 06:05:51;;;;;;;12.07;10.70;;;6.50;99.90;;;;;;5071994;28;20201;-57
2023/10/18 06:08:22;;;;;;;14.70;10.97;;;6.50;99.90;;;;;;5072080;28;20217;-56
2023/10/18 06:10:50;;;;;;;12.53;10.93;;;6.40;99.90;;;;;;5070763;28;20205;-56
2023/10/18 06:13:21;;;;;;;13.37;10.70;;;6.50;99.90;;;;;;5072056;28;20201;-56
2023/10/18 06:15:50;;;;;;;13.53;11.03;;;6.40;99.90;;;;;;5071818;28;20205;-56
2023/10/18 06:18:18;;;;;;;12.17;10.10;;;6.40;99.90;;;;;;5072265;28;20197;-56
2023/10/18 06:20:45;;;;;;;12.53;10.70;;;6.40;99.90;;;;;;5071878;28;20201;-57
2023/10/18 06:25:57;;;;;;;21.83;12.10;;;6.50;99.90;;;;;;5071464;28;20692;-57
2023/10/18 06:28:25;;;;;;;12.70;10.60;;;6.60;99.90;;;;;;5071774;28;20219;-56
2023/10/18 06:30:52;;;;;;;15.10;11.30;;;6.50;99.90;;;;;;5071564;28;20217;-57
2023/10/18 06:33:20;;;;;;;14.07;10.50;;;6.50;99.90;;;;;;5071612;28;20207;-57
2023/10/18 06:35:52;;;;;;;15.97;10.47;;;6.60;99.90;;;;;;5071505;28;20227;-57
2023/10/18 06:38:22;;;;;;;12.63;10.30;;;6.90;99.90;;;;;;5071733;28;20556;-57
2023/10/18 06:40:53;;;;;;;14.97;10.37;;;7.00;99.90;;;;;;5071499;28;20238;-56
2023/10/18 06:43:21;;;;;;;13.80;9.73;;;7.20;99.90;;;;;;5071680;28;20263;-57
2023/10/18 06:45:50;;;;;;;14.97;10.37;;;7.40;99.90;;;;;;5071335;28;20278;-56
2023/10/18 06:48:17;;;;;;;14.73;11.30;;;7.60;99.90;;;;;;5071210;28;20278;-56
2023/10/18 06:50:46;;;;;;;11.93;10.10;;;7.80;99.90;;;;;;5071084;28;20216;-57
2023/10/18 06:53:14;;;;;;;15.57;10.80;;;8.00;99.90;;;;;;5071060;28;20722;-56
2023/10/18 06:55:44;;;;;;;11.30;9.53;;;8.20;99.90;;;;;;5071114;28;20205;-56
2023/10/18 06:58:22;;;;;;;13.07;10.43;;;8.40;99.90;;;;;;5071262;28;20197;-56
2023/10/18 07:00:53;;;;;;;10.80;9.70;;;8.50;99.90;;;;;;5071160;28;20277;-56
2023/10/18 07:03:24;;;;;;;11.77;9.83;;;8.70;99.90;;;;;;5070997;28;20251;-56
2023/10/18 07:05:52;;;;;;;10.63;9.53;;;9.00;99.90;;;;;;5070830;28;20213;-57
2023/10/18 07:08:25;;;;;;;11.73;9.73;;;9.20;99.90;;;;;;5070843;28;20222;-55
2023/10/18 07:10:55;;;;;;;12.53;10.27;;;9.10;99.90;;;;;;5070736;28;20688;-57
2023/10/18 07:13:33;;;;;;;11.17;9.67;;;8.90;99.90;;;;;;5070727;28;20298;-57
2023/10/18 07:16:05;;;;;;;11.60;10.40;;;8.70;99.90;;;;;;5070620;28;20560;-57
2023/10/18 07:18:33;;;;;;;10.63;9.53;;;8.80;99.90;;;;;;5071074;28;20241;-57
2023/10/18 07:21:05;;;;;;;11.53;8.73;;;9.00;99.90;;;;;;5070847;28;20205;-56
2023/10/18 07:23:36;;;;;;;11.10;8.90;;;9.20;99.90;;;;;;5070837;28;20278;-57
2023/10/18 07:26:07;;;;;;;13.03;9.93;;;9.40;99.90;;;;;;5070500;28;20201;-57
2023/10/18 07:28:35;;;;;;;11.90;9.67;;;9.70;99.90;;;;;;5070219;28;20694;-56
2023/10/18 07:31:08;;;;;;;12.57;9.77;;;10.00;99.90;;;;;;5071009;28;20197;-57
2023/10/18 07:33:40;;;;;;;12.93;10.27;;;10.20;99.90;;;;;;5070563;28;20702;-57
2023/10/18 07:36:08;;;;;;;11.50;9.87;;;10.30;99.90;;;;;;5062571;28;20291;-57
2023/10/18 07:38:37;;;;;;;13.20;9.80;;;10.30;99.90;;;;;;5070514;28;20296;-60
2023/10/18 07:41:07;;;;;;;11.57;10.37;;;10.20;99.90;;;;;;5070358;28;20577;-59
2023/10/18 07:43:34;;;;;;;12.20;9.83;;;10.30;99.90;;;;;;5070834;28;20232;-55
2023/10/18 07:46:06;;;;;;;11.43;10.03;;;10.40;99.90;;;;;;5070741;28;20216;-57
2023/10/18 07:48:37;;;;;;;11.30;9.97;;;10.60;99.90;;;;;;5070467;28;20229;-57
2023/10/18 07:51:20;;;;;;;12.77;10.17;;;10.50;99.90;;;;;;5070249;28;20201;-56
2023/10/18 07:53:48;;;;;;;12.50;10.13;;;10.50;99.90;;;;;;5070488;28;20231;-55
2023/10/18 07:56:16;;;;;;;11.87;10.03;;;10.60;99.90;;;;;;5070536;28;20296;-56
2023/10/18 07:58:48;;;;;;;11.20;9.97;;;10.70;99.90;;;;;;5070102;28;20205;-56
2023/10/18 08:01:14;;;;;;;12.17;9.73;;;10.70;99.90;;;;;;5070334;28;20220;-57
2023/10/18 08:03:43;;;;;;;11.53;9.87;;;10.90;99.90;;;;;;5070420;28;20701;-57
2023/10/18 08:06:16;;;;;;;14.00;10.30;;;11.00;99.90;;;;;;5062465;28;20232;-55
2023/10/18 08:08:46;;;;;;;12.83;10.30;;;11.10;99.90;;;;;;5070257;28;20235;-57
2023/10/18 08:11:13;;;;;;;11.47;9.40;;;11.20;99.90;;;;;;5070386;28;20636;-56
2023/10/18 08:13:45;;;;;;;9.67;8.67;;;11.30;99.90;;;;;;5070232;28;20565;-56
2023/10/18 08:16:19;;;;;;;11.00;9.10;;;11.50;99.90;;;;;;5062476;28;20220;-56
2023/10/18 08:18:53;;;;;;;11.57;9.50;;;11.80;99.90;;;;;;5070168;28;20754;-57
2023/10/18 08:21:28;;;;;;;11.60;8.90;;;11.90;99.90;;;;;;5071609;28;20228;-56
2023/10/18 08:23:56;;;;;;;13.00;9.27;;;12.20;99.90;;;;;;5071476;28;20236;-56
2023/10/18 08:26:26;;;;;;;10.83;9.20;;;12.20;99.90;;;;;;5071768;28;20205;-59
2023/10/18 08:28:53;;;;;;;10.97;8.83;;;12.30;99.90;;;;;;5069772;28;20225;-57
2023/10/18 08:31:32;;;;;;;11.57;8.97;;;12.50;99.90;;;;;;5070129;28;20650;-57
2023/10/18 08:34:05;;;;;;;10.10;8.83;;;12.80;99.90;;;;;;5071411;28;20675;-60
2023/10/18 08:36:31;;;;;;;11.27;9.63;;;13.00;99.90;;;;;;5073772;28;20318;-60
2023/10/18 08:38:58;;;;;;;12.40;10.17;;;13.10;99.90;;;;;;5073538;28;20209;-57
2023/10/18 08:41:32;;;;;;;9.80;8.80;;;13.20;99.90;;;;;;5073722;28;20580;-56
2023/10/18 08:44:09;;;;;;;10.83;9.43;;;13.50;99.90;;;;;;5073764;28;20256;-56
2023/10/18 08:46:42;;;;;;;11.97;9.53;;;13.60;99.90;;;;;;5073727;28;20689;-56
2023/10/18 08:49:12;;;;;;;13.90;9.13;;;13.50;99.90;;;;;;5065642;28;20248;-56
2023/10/18 08:51:44;;;;;;;12.07;9.33;;;13.60;99.90;;;;;;5073783;28;20209;-56
2023/10/18 08:54:17;;;;;;;9.83;8.63;;;13.70;99.90;;;;;;5065792;28;20489;-56
2023/10/18 08:56:47;;;;;;;10.60;8.33;;;13.60;99.90;;;;;;5073499;28;20252;-57
2023/10/18 08:59:18;;;;;;;10.23;8.97;;;13.50;99.90;;;;;;5073816;28;20571;-57
2023/10/18 09:02:09;;;;;;;10.53;8.37;;;13.50;99.90;;;;;;5073557;28;20266;-57
2023/10/18 09:04:35;;;;;;;10.57;7.97;;;13.70;99.90;;;;;;5074596;28;20264;-57
2023/10/18 09:07:18;;;;;;;9.60;8.57;;;13.90;99.90;;;;;;5075644;28;20291;-57
2023/10/18 09:09:53;;;;;;;8.80;7.83;;;14.00;99.90;;;;;;5073184;28;20585;-56
2023/10/18 09:12:31;;;;;;;9.63;7.90;;;14.20;99.90;;;;;;5073311;28;20196;-57
2023/10/18 09:14:59;;;;;;;8.57;7.17;;;14.30;99.90;;;;;;5073087;28;20229;-59
2023/10/18 09:17:25;;;;;;;9.90;7.57;;;14.30;99.90;;;;;;5071343;28;20220;-54
2023/10/18 09:19:56;;;;;;;10.37;8.03;;;14.30;99.90;;;;;;5070058;28;20220;-58
2023/10/18 09:22:23;;;;;;;11.50;7.50;;;14.30;99.90;;;;;;5072990;28;20239;-57
2023/10/18 09:24:50;;;;;;;9.97;6.80;;;14.00;99.90;;;;;;5072511;28;20557;-58
2023/10/18 09:27:17;;;;;;;8.50;7.23;;;13.70;99.90;;;;;;5065805;28;20295;-60
2023/10/18 09:29:44;;;;;;;8.70;6.67;;;13.60;99.90;;;;;;5056047;28;20247;-58
2023/10/18 09:32:24;;;;;;;9.03;7.00;;;13.60;99.90;;;;;;5052593;28;20256;-58
2023/10/18 09:34:51;;;;;;;8.67;7.00;;;13.70;99.90;;;;;;5052232;28;20698;-57
2023/10/18 09:37:28;;;;;;;8.77;6.77;;;13.90;99.90;;;;;;5052393;28;20216;-58
2023/10/18 09:39:56;;;;;;;7.67;6.40;;;14.00;99.90;;;;;;5052969;28;20574;-58
2023/10/18 09:42:23;;;;;;;9.60;6.50;;;14.20;99.90;;;;;;5058948;28;20210;-58
2023/10/18 09:44:51;;;;;;;7.07;6.30;;;14.40;99.90;;;;;;5052067;28;20259;-59
2023/10/18 09:47:18;;;;;;;6.90;6.20;;;14.40;99.90;;;;;;5056634;28;20614;-59
2023/10/18 09:49:49;;;;;;;9.87;6.57;;;14.50;99.90;;;;;;5055347;28;20244;-57
2023/10/18 09:52:16;;;;;;;9.07;5.90;;;14.50;99.90;;;;;;5059928;28;20686;-59
2023/10/18 09:54:50;;;;;;;8.23;6.30;;;14.50;99.90;;;;;;5052165;28;20320;-57
2023/10/18 09:57:23;;;;;;;9.27;6.00;;;14.50;99.90;;;;;;5052060;28;20306;-58
2023/10/18 09:59:51;;;;;;;6.60;5.40;;;14.70;99.90;;;;;;5052219;28;20639;-60
2023/10/18 10:02:20;;;;;;;6.67;5.63;;;15.00;99.90;;;;;;5052065;28;20212;-58
2023/10/18 10:04:52;;;;;;;6.77;5.70;;;15.20;99.90;;;;;;5051146;28;20230;-57
2023/10/18 10:07:41;;;;;;;7.57;6.47;;;15.20;99.90;;;;;;5056554;28;20201;-57
2023/10/18 10:10:17;;;;;;;6.70;5.80;;;15.20;99.90;;;;;;5051926;28;20225;-58
2023/10/18 10:12:46;;;;;;;7.80;6.10;;;15.10;99.90;;;;;;5051692;28;20213;-61
2023/10/18 10:15:17;;;;;;;6.57;5.87;;;15.10;99.90;;;;;;5064754;28;20221;-57
2023/10/18 10:17:55;;;;;;;10.33;5.47;;;15.10;99.90;;;;;;5072077;28;20204;-57
2023/10/18 10:20:22;;;;;;;10.73;5.70;;;15.30;99.90;;;;;;5065181;28;20224;-57
2023/10/18 10:22:51;;;;;;;6.65;5.22;;;15.60;99.90;;;;;;5071891;28;20201;-57
2023/10/18 10:25:20;;;;;;;7.97;5.53;;;15.90;99.90;;;;;;5071504;28;20693;-57
2023/10/18 10:27:53;;;;;;;6.72;5.32;;;16.20;99.90;;;;;;5071573;28;20212;-56
2023/10/18 10:30:28;;;;;;;8.52;5.20;;;16.50;99.90;;;;;;5071744;28;20221;-56
2023/10/18 10:32:59;;;;;;;5.55;4.43;;;16.40;99.90;;;;;;5071385;28;20210;-56
2023/10/18 10:35:27;;;;;;;4.90;4.25;;;16.40;99.90;;;;;;5071531;28;20282;-57
2023/10/18 10:37:55;;;;;;;5.28;4.20;;;16.30;99.90;;;;;;5071205;28;20209;-56
2023/10/18 10:40:36;;;;;;;7.32;5.18;;;16.30;99.90;;;;;;5071188;28;20199;-57
2023/10/18 10:43:08;;;;;;;6.20;4.88;;;16.40;99.90;;;;;;5071126;28;20216;-56
2023/10/18 10:45:38;;;;;;;7.72;4.40;;;16.60;99.90;;;;;;5071830;28;20209;-56
2023/10/18 10:48:30;;;;;;;4.60;4.15;;;16.60;99.90;;;;;;5071015;28;20594;-58
2023/10/18 10:51:06;;;;;;;5.35;4.22;;;16.70;99.90;;;;;;5071153;28;20299;-57
2023/10/18 10:53:34;;;;;;;6.70;4.47;;;16.90;99.90;;;;;;5071325;28;20224;-60
2023/10/18 10:56:16;;;;;;;4.28;3.88;;;17.00;99.90;;;;;;5071139;28;20239;-57
2023/10/18 10:58:46;;;;;;;5.50;4.43;;;17.30;99.90;;;;;;5071015;28;20204;-56
2023/10/18 11:01:15;;;;;;;5.72;4.10;;;17.30;99.90;;;;;;5063243;28;20201;-58
2023/10/18 11:03:53;;;;;;;5.88;4.20;;;17.40;99.90;;;;;;5071147;28;20233;-56
2023/10/18 11:06:24;;;;;;;5.85;4.40;;;17.50;99.90;;;;;;5063867;28;20241;-57
2023/10/18 11:08:52;;;;;;;4.80;3.92;;;17.60;99.90;;;;;;5070917;28;20698;-58
2023/10/18 11:11:22;;;;;;;4.95;3.67;;;17.80;99.90;;;;;;5070773;28;20204;-57
2023/10/18 11:13:48;;;;;;;4.72;3.95;;;17.80;99.90;;;;;;5071258;28;20229;-57
2023/10/18 11:16:17;;;;;;;4.22;3.70;;;17.90;99.90;;;;;;5071051;28;20219;-57
2023/10/18 11:18:48;;;;;;;4.20;3.33;;;18.10;99.90;;;;;;5070750;28;20228;-57
2023/10/18 11:21:21;;;;;;;5.60;3.70;;;18.30;99.90;;;;;;5062601;28;20251;-58
2023/10/18 11:23:51;;;;;;;5.38;3.83;;;18.40;99.90;;;;;;5070916;28;20741;-57
2023/10/18 11:26:24;;;;;;;5.93;3.72;;;18.40;99.90;;;;;;5062793;28;20217;-57
2023/10/18 11:28:55;;;;;;;3.88;3.03;;;18.50;99.90;;;;;;5070390;28;20243;-57
2023/10/18 11:31:26;;;;;;;5.38;3.50;;;18.60;99.90;;;;;;5071010;28;20220;-56
2023/10/18 11:33:57;;;;;;;5.90;3.33;;;18.70;99.90;;;;;;5070583;28;20710;-57
2023/10/18 11:36:27;;;;;;;3.67;2.80;;;18.80;99.90;;;;;;5070676;28;20262;-57
2023/10/18 11:41:41;;;;;;;4.57;3.05;;;19.50;99.90;;;;;;5070370;28;20208;-57
2023/10/18 11:44:13;;;;;;;5.15;3.08;;;19.80;98.90;;;;;;5070337;28;20796;-58
2023/10/18 11:46:49;;;;;;;4.18;2.67;;;20.00;98.50;;;;;;5070437;28;20205;-56
2023/10/18 11:49:19;;;;;;;3.85;3.03;;;20.20;97.70;;;;;;5070321;28;20673;-57
2023/10/18 11:51:46;;;;;;;4.78;3.50;;;20.20;97.00;;;;;;5071058;28;20205;-57
2023/10/18 11:54:27;;;;;;;4.55;3.28;;;20.00;96.30;;;;;;5070786;28;20227;-57
2023/10/18 11:56:56;;;;;;;3.00;2.70;;;19.70;96.80;;;;;;5070511;28;20571;-58
2023/10/18 11:59:24;;;;;;;6.65;3.28;;;19.50;97.50;;;;;;5070206;28;20406;-58
2023/10/18 12:01:55;;;;;;;5.13;3.17;;;19.50;98.10;;;;;;5070257;28;20215;-58
2023/10/18 12:04:28;;;;;;;5.35;3.40;;;19.70;98.30;;;;;;5070574;28;20220;-58
2023/10/18 12:06:56;;;;;;;4.80;2.88;;;19.80;98.30;;;;;;5070521;28;20228;-58
2023/10/18 12:09:30;;;;;;;4.43;3.00;;;19.90;98.60;;;;;;5072743;28;20228;-58
2023/10/18 12:11:58;;;;;;;4.35;3.08;;;20.00;98.50;;;;;;5074533;28;20216;-57
2023/10/18 12:14:26;;;;;;;7.07;6.35;;;20.00;98.30;;;;;;5074459;28;20329;-58
2023/10/18 12:17:00;;;;;;;3.58;2.70;;;20.00;98.40;;;;;;5074152;28;20209;-57
2023/10/18 12:19:28;;;;;;;3.95;3.08;;;20.00;98.40;;;;;;5074398;28;20252;-55
2023/10/18 12:21:59;;;;;;;4.18;3.67;;;19.90;98.30;;;;;;5073909;28;20237;-58
2023/10/18 12:24:27;;;;;;;3.97;3.00;;;19.90;98.30;;;;;;5074091;28;20232;-58
2023/10/18 12:26:57;;;;;;;3.90;2.45;;;19.90;98.50;;;;;;5073584;28;20622;-58
2023/10/18 12:29:27;;;;;;;4.07;3.00;;;19.90;98.80;;;;;;5073371;28;20213;-58
2023/10/18 12:31:58;;;;;;;6.72;3.42;;;19.80;98.80;;;;;;5073890;28;20208;-60
2023/10/18 12:34:28;;;;;;;4.85;2.92;;;19.70;98.80;;;;;;5073795;28;20264;-58
2023/10/18 12:36:58;;;;;;;4.82;3.15;;;19.70;99.30;;;;;;5073513;28;20349;-57
2023/10/18 12:39:25;;;;;;;6.00;4.97;;;19.70;99.50;;;;;;5073796;28;20204;-58
2023/10/18 12:41:53;;;;;;;5.88;4.80;;;19.70;99.50;;;;;;5073654;28;20216;-58
2023/10/18 12:44:21;;;;;;;8.77;3.78;;;19.70;99.00;;;;;;5074141;28;20275;-57
2023/10/18 12:46:50;;;;;;;5.63;2.80;;;19.70;99.30;;;;;;5073507;28;20204;-57
2023/10/18 12:49:22;;;;;;;3.95;2.92;;;19.70;99.50;;;;;;5065566;28;20650;-58
2023/10/18 12:51:57;;;;;;;5.28;3.03;;;19.60;99.60;;;;;;5073681;28;20208;-57
2023/10/18 12:54:29;;;;;;;5.75;2.88;;;19.60;99.70;;;;;;5066763;28;20216;-59
2023/10/18 12:56:58;;;;;;;4.28;3.40;;;19.70;99.30;;;;;;5073498;28;20215;-57
2023/10/18 12:59:24;;;;;;;6.03;3.35;;;19.50;99.20;;;;;;5073375;28;20246;-58
2023/10/18 13:01:58;;;;;;;4.80;3.53;;;19.40;99.30;;;;;;5073107;28;20235;-57
2023/10/18 13:04:25;;;;;;;6.47;3.10;;;19.30;99.50;;;;;;5073818;28;20248;-57
2023/10/18 13:06:54;;;;;;;4.35;3.50;;;19.30;99.70;;;;;;5073241;28;20243;-57
2023/10/18 13:09:21;;;;;;;5.68;3.08;;;19.40;99.80;;;;;;5073161;28;20225;-58
2023/10/18 13:12:01;;;;;;;9.52;3.35;;;19.50;99.60;;;;;;5072977;28;20209;-58